Time;durP1;ratioP1;P1;durP2;ratioP2;P2;SDS_P1;SDS_P2;PMS_P1;PMS_P2;Temp;Humidity;BMP_temperature;BMP_pressure;BME280_temperature;BME280_humidity;BME280_pressure;Samples;Min_cycle;Max_cycle;Signal;HPM_P1;HPM_P2
2024/01/07 00:01:08;;;;;;;10.60;6.25;;;4.70;83.00;;;;;;5041410;28;20041;-66
2024/01/07 00:03:34;;;;;;;9.80;5.70;;;4.70;83.10;;;;;;5046201;28;20139;-66
2024/01/07 00:06:00;;;;;;;10.70;6.32;;;4.70;83.20;;;;;;5049642;28;20124;-66
2024/01/07 00:08:25;;;;;;;9.63;5.70;;;4.70;83.20;;;;;;5056645;28;20037;-66
2024/01/07 00:10:51;;;;;;;10.52;6.70;;;4.70;83.20;;;;;;5055732;28;20498;-68
2024/01/07 00:13:17;;;;;;;13.15;6.47;;;4.80;83.30;;;;;;5057308;28;20396;-67
2024/01/07 00:15:43;;;;;;;10.77;6.00;;;4.80;83.30;;;;;;5048323;28;20029;-68
2024/01/07 00:18:08;;;;;;;15.60;7.85;;;4.80;83.20;;;;;;5047689;28;20476;-67
2024/01/07 00:20:34;;;;;;;11.30;7.13;;;4.80;83.10;;;;;;5052236;28;20116;-67
2024/01/07 00:23:01;;;;;;;13.02;6.35;;;4.70;83.20;;;;;;5047022;28;20026;-67
2024/01/07 00:25:26;;;;;;;15.27;6.95;;;4.70;83.30;;;;;;5050419;28;20440;-65
2024/01/07 00:27:55;;;;;;;13.38;8.05;;;4.70;83.30;;;;;;5055672;28;20340;-67
2024/01/07 00:30:21;;;;;;;10.73;6.68;;;4.70;83.20;;;;;;5046661;28;20087;-67
2024/01/07 00:32:47;;;;;;;13.40;7.68;;;4.70;83.30;;;;;;5051781;28;20037;-67
2024/01/07 00:35:12;;;;;;;14.63;8.57;;;4.60;83.40;;;;;;5047889;28;20453;-67
2024/01/07 00:37:38;;;;;;;16.02;7.88;;;4.60;83.60;;;;;;5044126;28;20055;-67
2024/01/07 00:40:05;;;;;;;15.73;8.73;;;4.60;84.30;;;;;;5049265;28;20034;-67
2024/01/07 00:42:31;;;;;;;14.70;9.38;;;4.60;83.60;;;;;;5044812;28;20166;-67
2024/01/07 00:44:56;;;;;;;13.18;7.15;;;4.60;83.60;;;;;;5042150;28;20040;-68
2024/01/07 00:47:22;;;;;;;18.40;9.48;;;4.70;83.60;;;;;;5046351;28;20071;-68
2024/01/07 00:49:48;;;;;;;17.55;7.88;;;4.70;83.50;;;;;;5049789;28;20056;-68
2024/01/07 00:52:14;;;;;;;16.70;8.85;;;4.70;83.60;;;;;;5046057;28;20526;-68
2024/01/07 00:54:39;;;;;;;18.70;10.20;;;4.70;83.60;;;;;;5029120;28;20037;-68
2024/01/07 00:57:05;;;;;;;11.80;6.18;;;4.70;83.60;;;;;;5044475;28;20021;-68
2024/01/07 00:59:30;;;;;;;15.90;8.70;;;4.70;83.60;;;;;;5043040;28;20056;-68
2024/01/07 01:01:56;;;;;;;15.32;7.20;;;4.60;83.70;;;;;;5032546;28;20499;-68
2024/01/07 01:04:22;;;;;;;17.48;7.63;;;4.60;83.80;;;;;;5037625;28;20036;-66
2024/01/07 01:06:48;;;;;;;13.35;6.97;;;4.60;83.80;;;;;;5052300;28;20488;-66
2024/01/07 01:09:13;;;;;;;13.75;8.50;;;4.60;83.80;;;;;;5055564;28;20400;-66
2024/01/07 01:11:39;;;;;;;11.65;7.53;;;4.50;83.60;;;;;;5050805;28;20041;-68
2024/01/07 01:14:05;;;;;;;10.20;6.88;;;4.50;83.60;;;;;;5039429;28;20646;-67
2024/01/07 01:16:30;;;;;;;11.07;7.43;;;4.50;83.60;;;;;;5041739;28;20459;-68
2024/01/07 01:18:56;;;;;;;10.35;6.47;;;4.50;83.60;;;;;;5045698;28;20032;-66
2024/01/07 01:21:22;;;;;;;15.30;6.93;;;4.50;83.60;;;;;;5044302;28;20041;-66
2024/01/07 01:23:49;;;;;;;13.57;7.20;;;4.50;83.50;;;;;;5047216;28;20037;-68
2024/01/07 01:26:15;;;;;;;13.38;7.28;;;4.50;83.60;;;;;;5050885;28;20100;-68
2024/01/07 01:28:41;;;;;;;12.32;6.65;;;4.50;83.50;;;;;;5042440;28;20037;-68
2024/01/07 01:31:06;;;;;;;10.23;5.70;;;4.50;83.70;;;;;;5047213;28;20037;-68
2024/01/07 01:33:32;;;;;;;8.38;5.50;;;4.50;83.70;;;;;;5049681;28;20061;-68
2024/01/07 01:35:58;;;;;;;12.57;6.53;;;4.50;83.70;;;;;;5045410;28;20021;-67
2024/01/07 01:38:23;;;;;;;11.70;6.22;;;4.50;83.60;;;;;;5041176;28;20026;-68
2024/01/07 01:40:53;;;;;;;10.50;5.68;;;4.50;83.60;;;;;;5038524;28;20029;-68
2024/01/07 01:43:29;;;;;;;10.80;7.35;;;4.40;83.70;;;;;;5045035;28;20021;-67
2024/01/07 01:45:56;;;;;;;9.55;6.72;;;4.50;83.70;;;;;;5042813;28;20059;-67
2024/01/07 01:48:22;;;;;;;15.25;6.82;;;4.50;83.70;;;;;;5047928;28;20476;-67
2024/01/07 01:50:49;;;;;;;8.45;5.72;;;4.50;83.60;;;;;;5048488;28;20074;-65
2024/01/07 01:53:15;;;;;;;15.30;6.57;;;4.40;83.60;;;;;;5040742;28;20532;-65
2024/01/07 01:55:42;;;;;;;11.90;6.25;;;4.40;83.70;;;;;;5043702;28;20029;-65
2024/01/07 01:58:09;;;;;;;11.52;6.10;;;4.40;83.80;;;;;;5048668;28;20112;-65
2024/01/07 02:00:35;;;;;;;12.57;6.03;;;4.40;83.80;;;;;;5039472;28;20502;-67
2024/01/07 02:03:01;;;;;;;10.48;5.95;;;4.40;83.90;;;;;;5047911;28;20108;-65
2024/01/07 02:05:27;;;;;;;8.35;5.57;;;4.40;83.70;;;;;;5044553;28;20037;-66
2024/01/07 02:07:56;;;;;;;9.13;6.00;;;4.40;83.70;;;;;;5038836;28;20033;-65
2024/01/07 02:10:22;;;;;;;11.95;7.20;;;4.30;83.80;;;;;;5055520;28;20119;-65
2024/01/07 02:12:48;;;;;;;12.82;8.23;;;4.30;84.00;;;;;;5041472;28;20115;-65
2024/01/07 02:15:14;;;;;;;16.02;6.88;;;4.40;84.00;;;;;;5046506;28;20029;-65
2024/01/07 02:17:40;;;;;;;9.43;6.82;;;4.40;84.00;;;;;;5053430;28;20029;-66
2024/01/07 02:20:06;;;;;;;13.27;7.97;;;4.40;84.00;;;;;;5058327;28;20380;-66
2024/01/07 02:22:32;;;;;;;15.02;8.23;;;4.40;84.00;;;;;;5056400;28;20028;-66
2024/01/07 02:24:58;;;;;;;15.73;6.50;;;4.40;84.00;;;;;;5053426;28;20397;-66
2024/01/07 02:27:24;;;;;;;15.35;8.00;;;4.40;84.00;;;;;;5056815;28;20029;-65
2024/01/07 02:29:49;;;;;;;11.27;7.78;;;4.40;84.00;;;;;;5055457;28;20074;-65
2024/01/07 02:32:15;;;;;;;11.93;6.38;;;4.40;83.90;;;;;;5048117;28;20033;-65
2024/01/07 02:34:41;;;;;;;11.75;6.93;;;4.40;83.90;;;;;;5039398;28;20107;-66
2024/01/07 02:37:06;;;;;;;9.38;5.50;;;4.40;83.80;;;;;;5046638;28;20033;-67
2024/01/07 02:39:32;;;;;;;9.50;5.53;;;4.30;84.00;;;;;;5053480;28;20029;-67
2024/01/07 02:41:58;;;;;;;15.15;6.97;;;4.30;84.10;;;;;;5055554;28;20055;-66
2024/01/07 02:44:24;;;;;;;15.85;5.43;;;4.20;84.10;;;;;;5043708;28;20048;-66
2024/01/07 02:46:49;;;;;;;11.32;5.72;;;4.20;84.20;;;;;;5054725;28;20026;-64
2024/01/07 02:49:15;;;;;;;8.80;5.47;;;4.20;84.30;;;;;;5048863;28;20086;-64
2024/01/07 02:51:41;;;;;;;11.30;5.55;;;4.20;84.40;;;;;;5055108;28;20120;-65
2024/01/07 02:54:06;;;;;;;10.43;5.38;;;4.20;84.20;;;;;;5054576;28;20436;-66
2024/01/07 02:56:32;;;;;;;13.82;8.27;;;4.20;84.10;;;;;;5041982;28;20499;-65
2024/01/07 02:58:58;;;;;;;10.48;6.88;;;4.20;84.10;;;;;;5046201;28;20028;-65
2024/01/07 03:01:23;;;;;;;12.52;6.28;;;4.20;84.20;;;;;;5054206;28;20092;-65
2024/01/07 03:03:50;;;;;;;8.68;5.50;;;4.20;84.20;;;;;;5052846;28;20100;-64
2024/01/07 03:06:15;;;;;;;11.35;6.30;;;4.20;84.20;;;;;;5064151;28;20033;-66
2024/01/07 03:08:42;;;;;;;10.25;5.30;;;4.20;84.10;;;;;;5063539;28;20036;-66
2024/01/07 03:11:08;;;;;;;13.82;5.90;;;4.20;84.10;;;;;;5054242;28;20037;-64
2024/01/07 03:13:34;;;;;;;7.00;4.45;;;4.20;84.10;;;;;;5048985;28;20036;-64
2024/01/07 03:16:00;;;;;;;9.63;4.47;;;4.20;84.00;;;;;;5051276;28;20495;-64
2024/01/07 03:18:27;;;;;;;7.13;4.50;;;4.20;84.00;;;;;;5046287;28;20120;-64
2024/01/07 03:20:53;;;;;;;8.57;4.22;;;4.20;84.10;;;;;;5051482;28;20037;-64
2024/01/07 03:23:18;;;;;;;10.38;5.25;;;4.20;84.00;;;;;;5055471;28;20400;-64
2024/01/07 03:25:44;;;;;;;7.03;3.78;;;4.20;84.00;;;;;;5052426;28;20031;-64
2024/01/07 03:28:10;;;;;;;10.93;5.78;;;4.20;84.60;;;;;;5047127;28;20033;-64
2024/01/07 03:30:35;;;;;;;5.38;3.65;;;4.20;84.00;;;;;;5048351;28;20036;-64
2024/01/07 03:33:01;;;;;;;8.23;4.18;;;4.20;84.00;;;;;;5051806;28;20048;-64
2024/01/07 03:35:27;;;;;;;6.68;3.92;;;4.20;84.10;;;;;;5056308;28;20089;-66
2024/01/07 03:37:53;;;;;;;8.32;4.65;;;4.10;84.70;;;;;;5058600;28;20032;-66
2024/01/07 03:40:19;;;;;;;7.47;4.97;;;4.10;84.10;;;;;;5054300;28;20032;-66
2024/01/07 03:42:44;;;;;;;5.75;3.50;;;4.10;84.10;;;;;;5060106;28;20149;-64
2024/01/07 03:45:10;;;;;;;7.88;4.13;;;4.10;84.00;;;;;;5056661;28;20123;-64
2024/01/07 03:47:36;;;;;;;7.40;4.38;;;4.00;84.00;;;;;;5056105;28;20025;-64
2024/01/07 03:50:01;;;;;;;6.03;4.28;;;4.00;84.10;;;;;;5055217;28;20055;-64
2024/01/07 03:52:28;;;;;;;6.45;3.88;;;4.00;84.10;;;;;;5051349;28;20082;-67
2024/01/07 03:54:54;;;;;;;5.70;3.72;;;4.00;84.20;;;;;;5034166;28;20034;-66
2024/01/07 03:57:20;;;;;;;5.20;3.85;;;4.00;84.20;;;;;;5052512;28;20031;-67
2024/01/07 03:59:45;;;;;;;5.72;3.78;;;4.00;84.10;;;;;;5054495;28;20029;-67
2024/01/07 04:02:11;;;;;;;9.07;5.10;;;4.00;84.00;;;;;;5047293;28;20505;-67
2024/01/07 04:04:37;;;;;;;8.13;4.97;;;4.00;84.00;;;;;;5045631;28;20397;-67
2024/01/07 04:07:03;;;;;;;8.45;4.47;;;4.00;84.00;;;;;;5050733;28;20033;-66
2024/01/07 04:09:29;;;;;;;7.57;4.03;;;4.00;83.90;;;;;;5051386;28;20480;-65
2024/01/07 04:11:54;;;;;;;6.32;4.15;;;3.90;83.90;;;;;;5048038;28;20028;-66
2024/01/07 04:14:20;;;;;;;5.82;4.40;;;3.90;84.00;;;;;;5041873;28;20028;-67
2024/01/07 04:16:46;;;;;;;9.48;5.00;;;3.90;84.00;;;;;;5056299;28;20052;-67
2024/01/07 04:19:11;;;;;;;6.78;3.88;;;3.90;84.00;;;;;;5047139;28;20025;-66
2024/01/07 04:21:37;;;;;;;6.70;3.95;;;4.00;84.00;;;;;;5044366;28;20083;-66
2024/01/07 04:24:03;;;;;;;8.00;5.18;;;3.90;83.90;;;;;;5043291;28;20645;-65
2024/01/07 04:26:28;;;;;;;6.22;4.57;;;4.00;83.90;;;;;;5033689;28;20064;-65
2024/01/07 04:28:54;;;;;;;6.40;4.32;;;4.00;83.90;;;;;;5046988;28;20032;-65
2024/01/07 04:31:20;;;;;;;6.45;4.03;;;4.00;83.80;;;;;;5059409;28;20430;-67
2024/01/07 04:33:45;;;;;;;8.07;5.25;;;4.00;83.80;;;;;;5055200;28;20143;-67
2024/01/07 04:36:11;;;;;;;6.35;4.43;;;4.00;83.70;;;;;;5050244;28;20029;-67
2024/01/07 04:38:37;;;;;;;7.03;4.95;;;4.00;83.70;;;;;;5042657;28;20078;-67
2024/01/07 04:41:03;;;;;;;7.30;5.03;;;4.00;83.70;;;;;;5046355;28;20785;-65
2024/01/07 04:43:28;;;;;;;6.72;4.00;;;4.00;83.70;;;;;;5046147;28;20469;-65
2024/01/07 04:45:55;;;;;;;10.70;5.70;;;4.00;83.60;;;;;;5046473;28;20042;-65
2024/01/07 04:48:21;;;;;;;6.60;4.22;;;3.90;83.60;;;;;;5051133;28;20060;-65
2024/01/07 04:50:47;;;;;;;9.43;4.95;;;3.90;83.70;;;;;;5031795;28;20053;-65
2024/01/07 04:53:13;;;;;;;7.70;4.63;;;3.90;83.70;;;;;;5034685;28;20044;-66
2024/01/07 04:55:39;;;;;;;7.70;4.65;;;3.90;83.70;;;;;;5043944;28;20619;-66
2024/01/07 04:58:05;;;;;;;10.52;4.97;;;3.90;83.70;;;;;;5049221;28;20487;-67
2024/01/07 05:00:30;;;;;;;7.40;4.88;;;3.90;83.70;;;;;;5047440;28;20036;-65
2024/01/07 05:02:56;;;;;;;6.50;4.43;;;3.90;83.70;;;;;;5055771;28;20037;-65
2024/01/07 05:05:22;;;;;;;8.75;4.68;;;3.90;83.60;;;;;;5047432;28;20078;-66
2024/01/07 05:07:48;;;;;;;6.22;3.85;;;3.90;83.60;;;;;;5054366;28;20028;-68
2024/01/07 05:10:13;;;;;;;7.25;5.03;;;3.90;83.50;;;;;;5060898;28;20043;-68
2024/01/07 05:12:39;;;;;;;10.18;4.70;;;3.90;83.50;;;;;;5055304;28;20037;-67
2024/01/07 05:15:06;;;;;;;5.40;3.85;;;3.90;83.50;;;;;;5054883;28;20086;-67
2024/01/07 05:17:32;;;;;;;6.40;4.60;;;3.80;83.40;;;;;;5052940;28;20021;-67
2024/01/07 05:19:57;;;;;;;8.38;4.15;;;3.90;83.40;;;;;;5047502;28;20052;-67
2024/01/07 05:22:24;;;;;;;10.63;3.83;;;3.90;83.20;;;;;;5049688;28;20041;-66
2024/01/07 05:24:50;;;;;;;6.32;4.28;;;3.90;83.20;;;;;;5041920;28;20029;-66
2024/01/07 05:27:15;;;;;;;9.43;4.80;;;3.80;83.30;;;;;;5052882;28;20029;-66
2024/01/07 05:29:46;;;;;;;6.95;4.88;;;3.80;83.40;;;;;;5046869;28;20028;-66
2024/01/07 05:32:11;;;;;;;8.02;5.07;;;3.80;83.40;;;;;;5052134;28;20025;-66
2024/01/07 05:34:37;;;;;;;9.73;4.68;;;3.80;83.40;;;;;;5050369;28;20393;-67
2024/01/07 05:37:03;;;;;;;8.27;3.95;;;3.80;83.40;;;;;;5044661;28;20167;-67
2024/01/07 05:39:29;;;;;;;6.93;4.53;;;3.80;83.40;;;;;;5053192;28;20037;-66
2024/01/07 05:41:54;;;;;;;7.35;4.35;;;3.80;83.20;;;;;;5049081;28;20032;-66
2024/01/07 05:44:20;;;;;;;5.75;4.28;;;3.80;83.20;;;;;;5048805;28;20060;-66
2024/01/07 05:46:46;;;;;;;7.43;4.25;;;3.80;83.20;;;;;;5043656;28;20075;-66
2024/01/07 05:49:12;;;;;;;6.18;3.85;;;3.80;83.10;;;;;;5050060;28;20454;-66
2024/01/07 05:51:41;;;;;;;6.07;4.22;;;3.90;83.10;;;;;;5043053;28;20033;-66
2024/01/07 05:54:06;;;;;;;5.47;4.47;;;3.80;83.00;;;;;;5055480;28;20029;-66
2024/01/07 05:56:32;;;;;;;8.07;4.53;;;3.90;83.10;;;;;;5050774;28;20090;-66
2024/01/07 05:58:58;;;;;;;6.40;3.92;;;3.90;82.90;;;;;;5050543;28;20025;-66
2024/01/07 06:01:24;;;;;;;7.05;3.58;;;3.90;82.80;;;;;;5049737;28;20062;-67
2024/01/07 06:03:49;;;;;;;5.72;4.18;;;3.90;82.80;;;;;;5043817;28;20029;-68
2024/01/07 06:06:15;;;;;;;6.18;3.88;;;3.90;82.80;;;;;;5040750;28;20045;-68
2024/01/07 06:08:44;;;;;;;7.30;3.90;;;3.90;82.70;;;;;;5029090;28;20056;-68
2024/01/07 06:11:11;;;;;;;4.65;2.90;;;3.80;82.80;;;;;;5030805;28;20048;-68
2024/01/07 06:13:37;;;;;;;5.65;3.85;;;3.80;82.90;;;;;;5049415;28;20115;-66
2024/01/07 06:16:03;;;;;;;4.03;3.40;;;3.90;82.90;;;;;;5042802;28;20107;-68
2024/01/07 06:18:29;;;;;;;5.10;3.13;;;3.80;82.80;;;;;;5040905;28;20021;-68
2024/01/07 06:20:55;;;;;;;8.75;4.13;;;3.80;82.90;;;;;;5041221;28;20060;-66
2024/01/07 06:23:20;;;;;;;7.75;4.55;;;3.80;83.00;;;;;;5048967;28;20033;-66
2024/01/07 06:25:46;;;;;;;6.72;4.00;;;3.80;82.90;;;;;;5050239;28;20108;-66
2024/01/07 06:28:12;;;;;;;7.07;4.47;;;3.80;82.90;;;;;;5047488;28;20511;-67
2024/01/07 06:30:37;;;;;;;17.90;4.90;;;3.80;82.70;;;;;;5048160;28;20416;-66
2024/01/07 06:33:03;;;;;;;6.60;3.80;;;3.80;82.60;;;;;;5045869;28;20049;-66
2024/01/07 06:35:30;;;;;;;8.32;4.05;;;3.80;82.60;;;;;;5033326;28;20067;-68
2024/01/07 06:37:56;;;;;;;7.28;4.43;;;3.90;82.50;;;;;;5046237;28;20035;-67
2024/01/07 06:40:22;;;;;;;7.97;4.53;;;3.80;82.30;;;;;;5041748;28;20037;-66
2024/01/07 06:42:48;;;;;;;6.80;3.72;;;3.80;82.50;;;;;;5045237;28;20021;-66
2024/01/07 06:45:15;;;;;;;5.15;3.38;;;3.80;82.50;;;;;;5048486;28;20098;-68
2024/01/07 06:47:41;;;;;;;6.03;3.53;;;3.80;82.50;;;;;;5046570;28;20369;-68
2024/01/07 06:50:07;;;;;;;4.22;3.30;;;3.80;82.40;;;;;;5038880;28;20138;-68
2024/01/07 06:52:33;;;;;;;7.85;3.83;;;3.80;82.40;;;;;;5028566;28;20040;-66
2024/01/07 06:54:58;;;;;;;7.47;4.15;;;3.80;82.40;;;;;;5044253;28;20082;-66
2024/01/07 06:57:24;;;;;;;5.38;3.28;;;3.80;82.30;;;;;;5033551;28;20119;-66
2024/01/07 06:59:50;;;;;;;4.18;3.25;;;3.80;82.30;;;;;;5045154;28;20021;-66
2024/01/07 07:02:15;;;;;;;6.57;3.53;;;3.80;82.20;;;;;;5041599;28;20040;-68
2024/01/07 07:04:41;;;;;;;5.20;3.63;;;3.70;82.20;;;;;;5045632;28;20484;-67
2024/01/07 07:07:07;;;;;;;6.10;4.35;;;3.70;82.20;;;;;;5042180;28;20037;-67
2024/01/07 07:09:34;;;;;;;7.22;3.75;;;3.70;82.30;;;;;;5041180;28;20123;-68
2024/01/07 07:12:00;;;;;;;5.50;3.65;;;3.60;82.10;;;;;;5045913;28;20025;-68
2024/01/07 07:14:25;;;;;;;6.80;3.50;;;3.60;82.30;;;;;;5048282;28;20400;-67
2024/01/07 07:16:51;;;;;;;6.68;3.92;;;3.70;82.30;;;;;;5045647;28;20082;-66
2024/01/07 07:19:17;;;;;;;6.47;3.33;;;3.70;82.10;;;;;;5043694;28;20033;-67
2024/01/07 07:21:43;;;;;;;7.28;3.67;;;3.60;82.10;;;;;;5043862;28;20036;-68
2024/01/07 07:24:09;;;;;;;8.55;4.22;;;3.70;82.10;;;;;;5044423;28;20049;-67
2024/01/07 07:26:40;;;;;;;5.97;4.32;;;3.70;82.00;;;;;;5046856;28;20040;-69
2024/01/07 07:29:06;;;;;;;5.57;3.38;;;3.60;82.00;;;;;;5050952;28;20107;-68
2024/01/07 07:31:32;;;;;;;3.63;2.75;;;3.70;82.10;;;;;;5053781;28;20029;-68
2024/01/07 07:33:57;;;;;;;6.03;3.20;;;3.70;82.10;;;;;;5056253;28;20041;-66
2024/01/07 07:36:23;;;;;;;7.30;3.13;;;3.70;82.00;;;;;;5044657;28;20514;-66
2024/01/07 07:38:49;;;;;;;3.83;2.83;;;3.70;81.80;;;;;;5047807;28;20392;-67
2024/01/07 07:41:15;;;;;;;8.27;3.30;;;3.60;81.80;;;;;;5058138;28;20033;-67
2024/01/07 07:43:40;;;;;;;3.97;3.08;;;3.60;81.80;;;;;;5052489;28;20111;-67
2024/01/07 07:46:06;;;;;;;4.68;3.60;;;3.60;81.80;;;;;;5045937;28;20546;-69
2024/01/07 07:48:32;;;;;;;4.80;3.05;;;3.60;81.70;;;;;;5044677;28;20063;-67
2024/01/07 07:50:57;;;;;;;5.53;3.58;;;3.60;81.80;;;;;;5045796;28;20116;-68
2024/01/07 07:53:23;;;;;;;5.65;3.25;;;3.60;82.30;;;;;;5049866;28;20166;-67
2024/01/07 07:55:49;;;;;;;7.93;3.42;;;3.60;81.70;;;;;;5053956;28;20108;-68
2024/01/07 07:58:15;;;;;;;4.60;3.47;;;3.60;81.60;;;;;;5048043;28;20036;-67
2024/01/07 08:00:41;;;;;;;5.57;3.47;;;3.60;81.60;;;;;;5044511;28;20148;-69
2024/01/07 08:03:06;;;;;;;4.93;2.78;;;3.50;81.40;;;;;;5047471;28;20052;-67
2024/01/07 08:05:32;;;;;;;5.57;3.35;;;3.50;81.60;;;;;;5050124;28;20055;-66
2024/01/07 08:07:58;;;;;;;5.25;3.20;;;3.50;81.40;;;;;;5054705;28;20407;-66
2024/01/07 08:10:23;;;;;;;5.30;2.83;;;3.50;81.40;;;;;;5047928;28;20040;-66
2024/01/07 08:12:49;;;;;;;4.18;3.28;;;3.50;81.40;;;;;;5046149;28;20440;-67
2024/01/07 08:15:15;;;;;;;5.40;3.13;;;3.50;81.60;;;;;;5056084;28;20040;-67
2024/01/07 08:17:41;;;;;;;3.85;2.70;;;3.50;81.60;;;;;;5049371;28;20024;-68
2024/01/07 08:20:07;;;;;;;5.60;3.17;;;3.50;81.60;;;;;;5046030;28;20075;-66
2024/01/07 08:22:33;;;;;;;6.85;3.15;;;3.50;81.40;;;;;;5053679;28;20476;-68
2024/01/07 08:24:58;;;;;;;6.15;2.97;;;3.50;81.30;;;;;;5045310;28;20104;-67
2024/01/07 08:27:24;;;;;;;3.90;2.35;;;3.40;81.30;;;;;;5048889;28;20033;-69
2024/01/07 08:29:50;;;;;;;5.03;2.78;;;3.40;81.40;;;;;;5048583;28;20373;-67
2024/01/07 08:32:16;;;;;;;3.75;2.35;;;3.30;81.30;;;;;;5047570;28;20072;-65
2024/01/07 08:34:41;;;;;;;6.90;3.10;;;3.30;81.40;;;;;;5055033;28;20434;-65
2024/01/07 08:37:08;;;;;;;3.88;2.80;;;3.30;81.50;;;;;;5046812;28;20033;-66
2024/01/07 08:39:34;;;;;;;4.53;2.72;;;3.30;81.40;;;;;;5041089;28;20035;-67
2024/01/07 08:42:00;;;;;;;2.72;2.08;;;3.40;81.40;;;;;;5047418;28;20113;-66
2024/01/07 08:44:26;;;;;;;3.45;2.33;;;3.40;81.30;;;;;;5041646;28;20096;-66
2024/01/07 08:46:51;;;;;;;2.58;2.25;;;3.40;81.10;;;;;;5044514;28;20028;-67
2024/01/07 08:49:17;;;;;;;3.53;2.70;;;3.40;81.20;;;;;;5047500;28;20061;-67
2024/01/07 08:51:43;;;;;;;4.13;2.75;;;3.30;80.80;;;;;;5046999;28;20120;-68
2024/01/07 08:54:08;;;;;;;4.70;2.72;;;3.30;80.90;;;;;;5040874;28;20456;-64
2024/01/07 08:56:34;;;;;;;4.03;2.92;;;3.30;81.00;;;;;;5042201;28;20021;-65
2024/01/07 08:59:00;;;;;;;3.65;2.67;;;3.30;80.90;;;;;;5053258;28;20061;-66
2024/01/07 09:01:25;;;;;;;6.30;3.05;;;3.30;80.70;;;;;;5041773;28;20037;-68
2024/01/07 09:03:51;;;;;;;3.03;2.60;;;3.30;80.80;;;;;;5041177;28;20030;-65
2024/01/07 09:06:17;;;;;;;4.68;2.72;;;3.30;80.90;;;;;;5062387;28;20040;-66
2024/01/07 09:08:42;;;;;;;7.50;2.40;;;3.30;80.70;;;;;;5042557;28;20033;-63
2024/01/07 09:11:11;;;;;;;4.78;3.03;;;3.20;80.70;;;;;;5046816;28;20488;-63
2024/01/07 09:13:37;;;;;;;6.60;2.95;;;3.20;80.60;;;;;;5041393;28;20030;-63
2024/01/07 09:16:02;;;;;;;4.75;2.90;;;3.20;80.60;;;;;;5026555;28;20049;-63
2024/01/07 09:18:28;;;;;;;5.50;3.20;;;3.20;80.40;;;;;;5047379;28;20064;-68
2024/01/07 09:20:54;;;;;;;3.40;2.60;;;3.20;80.40;;;;;;5044908;28;20029;-68
2024/01/07 09:23:19;;;;;;;4.55;2.88;;;3.20;80.40;;;;;;5051766;28;20059;-68
2024/01/07 09:25:46;;;;;;;3.75;2.33;;;3.20;80.30;;;;;;5053185;28;20067;-67
2024/01/07 09:28:12;;;;;;;4.63;2.55;;;3.20;80.30;;;;;;5038982;28;20531;-67
2024/01/07 09:30:38;;;;;;;2.97;2.38;;;3.30;80.30;;;;;;5049987;28;20032;-67
2024/01/07 09:33:05;;;;;;;4.93;3.08;;;3.30;80.30;;;;;;5053459;28;20780;-67
2024/01/07 09:35:31;;;;;;;3.15;2.15;;;3.30;80.10;;;;;;5043472;28;20515;-67
2024/01/07 09:37:57;;;;;;;3.78;2.42;;;3.40;80.10;;;;;;5050899;28;20447;-67
2024/01/07 09:40:23;;;;;;;5.78;2.58;;;3.30;79.90;;;;;;5047825;28;20040;-68
2024/01/07 09:42:49;;;;;;;3.33;2.28;;;3.40;80.10;;;;;;5044474;28;20498;-68
2024/01/07 09:45:18;;;;;;;4.35;2.75;;;3.30;80.00;;;;;;5041903;28;20021;-63
2024/01/07 09:47:45;;;;;;;3.60;2.42;;;3.30;79.80;;;;;;5045023;28;20029;-63
2024/01/07 09:50:11;;;;;;;3.92;2.20;;;3.40;79.90;;;;;;5044832;28;20025;-63
2024/01/07 09:52:41;;;;;;;3.60;2.35;;;3.40;79.70;;;;;;5045544;28;20029;-68
2024/01/07 09:55:09;;;;;;;7.28;3.30;;;3.40;79.60;;;;;;5041432;28;20025;-68
2024/01/07 09:57:37;;;;;;;3.78;2.90;;;3.30;79.40;;;;;;5049696;28;20024;-63
2024/01/07 10:00:04;;;;;;;5.10;2.40;;;3.30;79.40;;;;;;5043594;28;20510;-63
2024/01/07 10:02:30;;;;;;;3.97;2.70;;;3.30;79.40;;;;;;5045601;28;20064;-63
2024/01/07 10:04:56;;;;;;;2.42;1.67;;;3.40;79.30;;;;;;5049016;28;20037;-64
2024/01/07 10:07:22;;;;;;;2.30;1.55;;;3.40;79.20;;;;;;5049910;28;20028;-63
2024/01/07 10:09:47;;;;;;;3.40;2.33;;;3.50;79.10;;;;;;5043928;28;20037;-63
2024/01/07 10:12:13;;;;;;;2.40;1.83;;;3.50;79.50;;;;;;5045669;28;20048;-67
2024/01/07 10:14:40;;;;;;;3.72;1.73;;;3.50;78.90;;;;;;5044375;28;20045;-68
2024/01/07 10:17:27;;;;;;;2.47;1.55;;;3.60;78.80;;;;;;5037796;28;20057;-68
2024/01/07 10:19:53;;;;;;;2.90;2.15;;;3.70;78.60;;;;;;5046024;28;20468;-68
2024/01/07 10:22:19;;;;;;;2.97;1.80;;;3.70;78.30;;;;;;5044956;28;20037;-62
2024/01/07 10:24:45;;;;;;;2.97;1.85;;;3.70;78.10;;;;;;5048547;28;20501;-62
2024/01/07 10:27:12;;;;;;;2.58;1.50;;;3.70;77.90;;;;;;5040178;28;20061;-63
2024/01/07 10:29:37;;;;;;;1.50;1.15;;;3.70;77.90;;;;;;5049577;28;20530;-63
2024/01/07 10:32:04;;;;;;;3.78;2.00;;;3.70;77.80;;;;;;5047124;28;20033;-62
2024/01/07 10:34:35;;;;;;;2.78;1.65;;;3.80;77.90;;;;;;5052737;28;20511;-62
2024/01/07 10:37:03;;;;;;;1.95;1.58;;;3.90;77.60;;;;;;5042403;28;20036;-62
2024/01/07 10:39:30;;;;;;;2.38;1.67;;;4.00;77.10;;;;;;5051287;28;20543;-63
2024/01/07 10:41:59;;;;;;;4.35;1.85;;;4.20;77.10;;;;;;5051639;28;20281;-63
2024/01/07 10:44:31;;;;;;;2.42;1.38;;;4.60;76.30;;;;;;5042048;28;20040;-68
2024/01/07 10:46:57;;;;;;;3.85;2.30;;;4.80;75.80;;;;;;5044434;28;20042;-62
2024/01/07 10:49:25;;;;;;;3.85;1.70;;;4.80;74.80;;;;;;5043431;28;20024;-63
2024/01/07 10:52:06;;;;;;;4.35;1.73;;;4.70;74.80;;;;;;5045317;28;20395;-63
2024/01/07 10:54:33;;;;;;;2.30;1.60;;;4.60;75.00;;;;;;5047918;28;20502;-63
2024/01/07 10:57:34;;;;;;;2.30;1.52;;;4.50;75.30;;;;;;5041158;28;20040;-62
2024/01/07 11:00:00;;;;;;;6.05;1.90;;;4.50;75.20;;;;;;5041107;28;20086;-67
2024/01/07 11:02:27;;;;;;;1.10;1.00;;;4.40;75.30;;;;;;5047294;28;20037;-63
2024/01/07 11:05:16;;;;;;;1.90;1.55;;;4.30;75.10;;;;;;5054965;28;20059;-62
2024/01/07 11:07:46;;;;;;;3.55;2.15;;;4.30;74.90;;;;;;5043146;28;20075;-63
2024/01/07 11:10:17;;;;;;;3.03;1.48;;;4.20;75.10;;;;;;5042895;28;20102;-63
2024/01/07 11:12:43;;;;;;;1.60;1.47;;;4.30;75.50;;;;;;5047096;28;20033;-63
2024/01/07 11:15:09;;;;;;;1.80;1.33;;;4.50;74.70;;;;;;5045825;28;20744;-62
2024/01/07 11:17:37;;;;;;;3.83;1.55;;;4.60;74.60;;;;;;5049765;28;20445;-63
2024/01/07 11:20:10;;;;;;;1.55;1.05;;;5.60;74.60;;;;;;5042777;28;20484;-68
2024/01/07 11:22:36;;;;;;;2.45;1.50;;;6.70;71.30;;;;;;5040554;28;20036;-62
2024/01/07 11:25:02;;;;;;;3.65;1.40;;;8.00;68.80;;;;;;5047776;28;20033;-62
2024/01/07 11:27:32;;;;;;;2.80;1.50;;;9.40;64.40;;;;;;5045507;28;20041;-68
2024/01/07 11:30:19;;;;;;;1.83;0.88;;;10.30;61.70;;;;;;5044335;28;20156;-68
2024/01/07 11:32:48;;;;;;;0.85;0.82;;;11.10;60.50;;;;;;5050059;28;20473;-63
2024/01/07 11:35:15;;;;;;;1.20;1.10;;;12.20;57.10;;;;;;5054624;28;20051;-62
2024/01/07 11:37:41;;;;;;;2.67;1.02;;;12.10;56.90;;;;;;5053720;28;20029;-63
2024/01/07 11:40:08;;;;;;;5.18;0.73;;;12.00;56.30;;;;;;5048033;28;20111;-64
2024/01/07 11:42:33;;;;;;;0.93;0.70;;;12.60;55.50;;;;;;5053728;28;20123;-63
2024/01/07 11:44:59;;;;;;;1.42;1.02;;;12.80;54.30;;;;;;5047666;28;20116;-64
2024/01/07 11:47:28;;;;;;;1.15;0.73;;;12.70;53.80;;;;;;5052488;28;20091;-65
2024/01/07 11:49:54;;;;;;;3.60;0.93;;;12.60;53.90;;;;;;5052260;28;20036;-63
2024/01/07 11:52:19;;;;;;;3.45;0.80;;;13.50;52.50;;;;;;5051546;28;20033;-63
2024/01/07 11:54:47;;;;;;;1.52;0.90;;;14.60;50.10;;;;;;5050082;28;20064;-63
2024/01/07 11:57:13;;;;;;;1.02;0.93;;;15.40;48.00;;;;;;5052807;28;20087;-67
2024/01/07 11:59:39;;;;;;;1.90;1.17;;;16.00;46.50;;;;;;5048162;28;20025;-67
2024/01/07 12:02:05;;;;;;;1.30;0.82;;;16.80;44.50;;;;;;5047450;28;20040;-67
2024/01/07 12:04:32;;;;;;;1.75;0.63;;;17.10;43.10;;;;;;5046170;28;20032;-67
2024/01/07 12:06:58;;;;;;;0.63;0.63;;;17.20;41.40;;;;;;5054804;28;20039;-63
2024/01/07 12:09:25;;;;;;;2.03;0.85;;;17.40;41.00;;;;;;5048294;28;20060;-63
2024/01/07 12:11:51;;;;;;;1.35;0.57;;;18.10;40.50;;;;;;5047083;28;20051;-63
2024/01/07 12:14:18;;;;;;;0.50;0.50;;;18.50;38.00;;;;;;5051197;28;20086;-63
2024/01/07 12:16:44;;;;;;;0.80;0.52;;;18.90;37.30;;;;;;5048672;28;20483;-63
2024/01/07 12:19:10;;;;;;;1.00;0.77;;;19.50;37.30;;;;;;5045647;28;20108;-67
2024/01/07 12:21:36;;;;;;;1.17;1.02;;;20.10;37.20;;;;;;5043432;28;20084;-64
2024/01/07 12:24:03;;;;;;;0.60;0.57;;;21.00;36.10;;;;;;5049368;28;20017;-63
2024/01/07 12:26:28;;;;;;;0.77;0.68;;;21.50;34.30;;;;;;5043687;28;20116;-67
2024/01/07 12:28:57;;;;;;;1.20;0.60;;;21.10;33.50;;;;;;5050129;28;20107;-67
2024/01/07 12:31:29;;;;;;;0.70;0.70;;;19.50;34.90;;;;;;5048347;28;20021;-67
2024/01/07 12:33:56;;;;;;;0.40;0.40;;;17.40;36.80;;;;;;5044428;28;20459;-67
2024/01/07 12:36:22;;;;;;;2.13;0.70;;;15.30;39.60;;;;;;5046468;28;20033;-67
2024/01/07 12:38:48;;;;;;;1.02;0.60;;;13.20;41.30;;;;;;5055617;28;20025;-67
2024/01/07 12:41:14;;;;;;;1.02;0.70;;;11.30;43.60;;;;;;5052516;28;20025;-67
2024/01/07 12:43:40;;;;;;;0.80;0.68;;;9.80;46.30;;;;;;5038687;28;20030;-67
2024/01/07 12:46:06;;;;;;;0.57;0.40;;;8.80;48.60;;;;;;5041829;28;20559;-67
2024/01/07 12:48:33;;;;;;;0.95;0.60;;;8.50;50.40;;;;;;5043954;28;20032;-63